sensor_id;sensor_type;location;lat;lon;timestamp;P1;durP1;ratioP1;P2;durP2;ratioP2
63112;SDS011;49206;48.020;21.378;2023-02-04T00:00:56;46.40;;;21.80;;
63112;SDS011;49206;48.020;21.378;2023-02-04T00:01:59;45.40;;;21.05;;
63112;SDS011;49206;48.020;21.378;2023-02-04T00:03:01;51.40;;;24.27;;
63112;SDS011;49206;48.020;21.378;2023-02-04T00:04:04;42.25;;;20.88;;
63112;SDS011;49206;48.020;21.378;2023-02-04T00:05:07;45.85;;;22.05;;
63112;SDS011;49206;48.020;21.378;2023-02-04T00:06:10;46.03;;;21.40;;
63112;SDS011;49206;48.020;21.378;2023-02-04T00:07:13;47.53;;;20.20;;
63112;SDS011;49206;48.020;21.378;2023-02-04T00:08:15;42.40;;;20.77;;
63112;SDS011;49206;48.020;21.378;2023-02-04T00:09:18;43.03;;;19.75;;
63112;SDS011;49206;48.020;21.378;2023-02-04T00:10:21;44.25;;;20.80;;
63112;SDS011;49206;48.020;21.378;2023-02-04T00:11:23;39.83;;;18.95;;
63112;SDS011;49206;48.020;21.378;2023-02-04T00:12:26;47.63;;;22.23;;
63112;SDS011;49206;48.020;21.378;2023-02-04T00:13:29;42.10;;;20.70;;
63112;SDS011;49206;48.020;21.378;2023-02-04T00:14:31;42.40;;;21.15;;
63112;SDS011;49206;48.020;21.378;2023-02-04T00:15:34;51.03;;;21.23;;
63112;SDS011;49206;48.020;21.378;2023-02-04T00:16:37;45.28;;;20.92;;
63112;SDS011;49206;48.020;21.378;2023-02-04T00:17:40;37.42;;;19.70;;
63112;SDS011;49206;48.020;21.378;2023-02-04T00:18:42;41.35;;;18.73;;
63112;SDS011;49206;48.020;21.378;2023-02-04T00:19:45;41.08;;;18.70;;
63112;SDS011;49206;48.020;21.378;2023-02-04T00:20:48;33.67;;;16.88;;
63112;SDS011;49206;48.020;21.378;2023-02-04T00:21:50;36.53;;;18.30;;
63112;SDS011;49206;48.020;21.378;2023-02-04T00:22:53;32.47;;;16.88;;
63112;SDS011;49206;48.020;21.378;2023-02-04T00:23:56;36.03;;;17.10;;
63112;SDS011;49206;48.020;21.378;2023-02-04T00:24:58;35.53;;;18.25;;
63112;SDS011;49206;48.020;21.378;2023-02-04T00:26:01;35.65;;;18.08;;
63112;SDS011;49206;48.020;21.378;2023-02-04T00:27:04;40.10;;;18.40;;
63112;SDS011;49206;48.020;21.378;2023-02-04T00:28:07;36.80;;;17.50;;
63112;SDS011;49206;48.020;21.378;2023-02-04T00:29:10;37.20;;;19.30;;
63112;SDS011;49206;48.020;21.378;2023-02-04T00:30:13;38.08;;;18.67;;
63112;SDS011;49206;48.020;21.378;2023-02-04T00:31:16;34.58;;;17.83;;
63112;SDS011;49206;48.020;21.378;2023-02-04T00:32:18;33.75;;;19.02;;
63112;SDS011;49206;48.020;21.378;2023-02-04T00:33:21;37.20;;;18.27;;
63112;SDS011;49206;48.020;21.378;2023-02-04T00:34:24;39.22;;;18.67;;
63112;SDS011;49206;48.020;21.378;2023-02-04T00:35:26;35.78;;;17.90;;
63112;SDS011;49206;48.020;21.378;2023-02-04T00:36:29;38.25;;;18.73;;
63112;SDS011;49206;48.020;21.378;2023-02-04T00:37:32;38.22;;;17.55;;
63112;SDS011;49206;48.020;21.378;2023-02-04T00:38:35;36.95;;;18.17;;
63112;SDS011;49206;48.020;21.378;2023-02-04T00:39:38;43.85;;;18.48;;
63112;SDS011;49206;48.020;21.378;2023-02-04T00:40:41;42.05;;;19.48;;
63112;SDS011;49206;48.020;21.378;2023-02-04T00:41:44;38.47;;;18.00;;
63112;SDS011;49206;48.020;21.378;2023-02-04T00:42:48;36.72;;;19.48;;
63112;SDS011;49206;48.020;21.378;2023-02-04T00:43:50;32.33;;;16.77;;
63112;SDS011;49206;48.020;21.378;2023-02-04T00:44:53;35.33;;;17.60;;
63112;SDS011;49206;48.020;21.378;2023-02-04T00:45:57;32.97;;;17.48;;
63112;SDS011;49206;48.020;21.378;2023-02-04T00:47:00;33.53;;;18.05;;
63112;SDS011;49206;48.020;21.378;2023-02-04T00:48:04;34.25;;;17.80;;
63112;SDS011;49206;48.020;21.378;2023-02-04T00:49:08;35.13;;;16.95;;
63112;SDS011;49206;48.020;21.378;2023-02-04T00:50:14;37.92;;;17.08;;
63112;SDS011;49206;48.020;21.378;2023-02-04T00:51:17;35.35;;;18.13;;
63112;SDS011;49206;48.020;21.378;2023-02-04T00:52:20;35.92;;;17.15;;
63112;SDS011;49206;48.020;21.378;2023-02-04T00:53:23;39.45;;;19.65;;
63112;SDS011;49206;48.020;21.378;2023-02-04T00:54:26;37.08;;;18.55;;
63112;SDS011;49206;48.020;21.378;2023-02-04T00:55:29;35.47;;;18.13;;
63112;SDS011;49206;48.020;21.378;2023-02-04T00:56:32;37.05;;;18.63;;
63112;SDS011;49206;48.020;21.378;2023-02-04T00:57:37;38.35;;;18.50;;
63112;SDS011;49206;48.020;21.378;2023-02-04T00:58:40;40.72;;;20.13;;
63112;SDS011;49206;48.020;21.378;2023-02-04T00:59:43;36.55;;;17.73;;
63112;SDS011;49206;48.020;21.378;2023-02-04T01:00:45;42.35;;;19.20;;
63112;SDS011;49206;48.020;21.378;2023-02-04T01:01:48;37.83;;;18.83;;
63112;SDS011;49206;48.020;21.378;2023-02-04T01:02:52;37.72;;;18.55;;
63112;SDS011;49206;48.020;21.378;2023-02-04T01:03:55;34.50;;;17.00;;
63112;SDS011;49206;48.020;21.378;2023-02-04T01:04:58;36.97;;;18.83;;
63112;SDS011;49206;48.020;21.378;2023-02-04T01:06:00;40.15;;;19.92;;
63112;SDS011;49206;48.020;21.378;2023-02-04T01:07:03;34.58;;;18.17;;
63112;SDS011;49206;48.020;21.378;2023-02-04T01:08:06;29.90;;;15.45;;
63112;SDS011;49206;48.020;21.378;2023-02-04T01:09:08;32.90;;;17.63;;
63112;SDS011;49206;48.020;21.378;2023-02-04T01:10:11;29.25;;;16.38;;
63112;SDS011;49206;48.020;21.378;2023-02-04T01:11:17;35.47;;;17.88;;
63112;SDS011;49206;48.020;21.378;2023-02-04T01:12:20;35.78;;;18.60;;
63112;SDS011;49206;48.020;21.378;2023-02-04T01:13:24;36.28;;;18.55;;
63112;SDS011;49206;48.020;21.378;2023-02-04T01:14:27;39.30;;;19.10;;
63112;SDS011;49206;48.020;21.378;2023-02-04T01:15:29;34.83;;;17.98;;
63112;SDS011;49206;48.020;21.378;2023-02-04T01:16:32;35.97;;;17.40;;
63112;SDS011;49206;48.020;21.378;2023-02-04T01:17:35;35.53;;;18.73;;
63112;SDS011;49206;48.020;21.378;2023-02-04T01:18:38;40.30;;;18.30;;
63112;SDS011;49206;48.020;21.378;2023-02-04T01:19:40;33.88;;;18.13;;
63112;SDS011;49206;48.020;21.378;2023-02-04T01:20:43;33.22;;;17.83;;
63112;SDS011;49206;48.020;21.378;2023-02-04T01:21:45;37.95;;;18.50;;
63112;SDS011;49206;48.020;21.378;2023-02-04T01:22:48;32.75;;;17.70;;
63112;SDS011;49206;48.020;21.378;2023-02-04T01:23:51;33.28;;;17.83;;
63112;SDS011;49206;48.020;21.378;2023-02-04T01:24:53;31.15;;;16.77;;
63112;SDS011;49206;48.020;21.378;2023-02-04T01:26:18;31.88;;;15.27;;
63112;SDS011;49206;48.020;21.378;2023-02-04T01:27:21;32.67;;;17.38;;
63112;SDS011;49206;48.020;21.378;2023-02-04T01:28:23;31.08;;;16.65;;
63112;SDS011;49206;48.020;21.378;2023-02-04T01:29:26;32.05;;;17.20;;
63112;SDS011;49206;48.020;21.378;2023-02-04T01:30:28;34.28;;;17.90;;
63112;SDS011;49206;48.020;21.378;2023-02-04T01:31:31;34.60;;;18.08;;
63112;SDS011;49206;48.020;21.378;2023-02-04T01:32:36;36.05;;;18.15;;
63112;SDS011;49206;48.020;21.378;2023-02-04T01:33:39;34.92;;;18.30;;
63112;SDS011;49206;48.020;21.378;2023-02-04T01:34:41;36.00;;;18.10;;
63112;SDS011;49206;48.020;21.378;2023-02-04T01:35:44;33.78;;;18.55;;
63112;SDS011;49206;48.020;21.378;2023-02-04T01:36:48;35.40;;;17.10;;
63112;SDS011;49206;48.020;21.378;2023-02-04T01:37:51;40.40;;;18.60;;
63112;SDS011;49206;48.020;21.378;2023-02-04T01:38:54;36.30;;;17.75;;
63112;SDS011;49206;48.020;21.378;2023-02-04T01:39:56;32.65;;;16.73;;
63112;SDS011;49206;48.020;21.378;2023-02-04T01:40:59;34.13;;;18.15;;
63112;SDS011;49206;48.020;21.378;2023-02-04T01:42:02;36.97;;;17.83;;
63112;SDS011;49206;48.020;21.378;2023-02-04T01:43:05;38.03;;;18.73;;
63112;SDS011;49206;48.020;21.378;2023-02-04T01:44:08;38.13;;;18.13;;
63112;SDS011;49206;48.020;21.378;2023-02-04T01:45:11;42.05;;;18.77;;
63112;SDS011;49206;48.020;21.378;2023-02-04T01:46:14;37.78;;;18.70;;
63112;SDS011;49206;48.020;21.378;2023-02-04T01:47:18;35.42;;;17.02;;
63112;SDS011;49206;48.020;21.378;2023-02-04T01:48:21;36.05;;;18.52;;
63112;SDS011;49206;48.020;21.378;2023-02-04T01:49:27;36.03;;;18.33;;
63112;SDS011;49206;48.020;21.378;2023-02-04T01:50:30;35.20;;;17.17;;
63112;SDS011;49206;48.020;21.378;2023-02-04T01:51:34;39.92;;;17.70;;
63112;SDS011;49206;48.020;21.378;2023-02-04T01:52:38;36.88;;;17.48;;
63112;SDS011;49206;48.020;21.378;2023-02-04T01:53:41;37.13;;;17.90;;
63112;SDS011;49206;48.020;21.378;2023-02-04T01:54:44;32.97;;;16.02;;
63112;SDS011;49206;48.020;21.378;2023-02-04T01:55:47;33.13;;;16.50;;
63112;SDS011;49206;48.020;21.378;2023-02-04T01:56:50;31.73;;;14.80;;
63112;SDS011;49206;48.020;21.378;2023-02-04T01:57:53;33.63;;;16.25;;
63112;SDS011;49206;48.020;21.378;2023-02-04T01:59:00;34.30;;;16.13;;
63112;SDS011;49206;48.020;21.378;2023-02-04T02:00:05;30.45;;;14.48;;
63112;SDS011;49206;48.020;21.378;2023-02-04T02:01:13;32.63;;;14.07;;
63112;SDS011;49206;48.020;21.378;2023-02-04T02:03:42;69.40;;;14.63;;
63112;SDS011;49206;48.020;21.378;2023-02-04T02:04:45;54.17;;;15.90;;
63112;SDS011;49206;48.020;21.378;2023-02-04T02:05:49;75.85;;;15.68;;
63112;SDS011;49206;48.020;21.378;2023-02-04T02:06:55;97.35;;;15.10;;
63112;SDS011;49206;48.020;21.378;2023-02-04T02:08:00;53.75;;;12.45;;
63112;SDS011;49206;48.020;21.378;2023-02-04T02:09:04;67.22;;;13.50;;
63112;SDS011;49206;48.020;21.378;2023-02-04T02:10:09;58.80;;;13.65;;
63112;SDS011;49206;48.020;21.378;2023-02-04T02:11:15;85.70;;;13.68;;
63112;SDS011;49206;48.020;21.378;2023-02-04T02:12:17;66.90;;;13.80;;
63112;SDS011;49206;48.020;21.378;2023-02-04T02:13:20;37.60;;;14.27;;
63112;SDS011;49206;48.020;21.378;2023-02-04T02:14:23;57.03;;;14.43;;
63112;SDS011;49206;48.020;21.378;2023-02-04T02:15:25;55.17;;;13.30;;
63112;SDS011;49206;48.020;21.378;2023-02-04T02:16:28;48.25;;;14.73;;
63112;SDS011;49206;48.020;21.378;2023-02-04T02:17:31;81.13;;;14.90;;
63112;SDS011;49206;48.020;21.378;2023-02-04T02:18:34;38.92;;;13.15;;
63112;SDS011;49206;48.020;21.378;2023-02-04T02:19:37;43.05;;;14.75;;
63112;SDS011;49206;48.020;21.378;2023-02-04T02:20:41;56.80;;;13.98;;
63112;SDS011;49206;48.020;21.378;2023-02-04T02:21:58;54.95;;;15.35;;
63112;SDS011;49206;48.020;21.378;2023-02-04T02:24:29;31.80;;;14.00;;
63112;SDS011;49206;48.020;21.378;2023-02-04T02:25:33;47.47;;;16.23;;
63112;SDS011;49206;48.020;21.378;2023-02-04T02:26:37;42.40;;;16.95;;
63112;SDS011;49206;48.020;21.378;2023-02-04T02:27:40;44.30;;;18.90;;
63112;SDS011;49206;48.020;21.378;2023-02-04T02:28:43;44.60;;;18.20;;
63112;SDS011;49206;48.020;21.378;2023-02-04T02:29:48;48.90;;;20.40;;
63112;SDS011;49206;48.020;21.378;2023-02-04T02:30:52;60.05;;;18.73;;
63112;SDS011;49206;48.020;21.378;2023-02-04T02:31:55;53.60;;;16.90;;
63112;SDS011;49206;48.020;21.378;2023-02-04T02:32:59;49.13;;;18.55;;
63112;SDS011;49206;48.020;21.378;2023-02-04T02:34:02;54.67;;;19.65;;
63112;SDS011;49206;48.020;21.378;2023-02-04T02:35:05;49.88;;;17.40;;
63112;SDS011;49206;48.020;21.378;2023-02-04T02:36:08;49.55;;;17.70;;
63112;SDS011;49206;48.020;21.378;2023-02-04T02:37:11;39.72;;;17.58;;
63112;SDS011;49206;48.020;21.378;2023-02-04T02:38:15;50.45;;;17.70;;
63112;SDS011;49206;48.020;21.378;2023-02-04T02:39:19;50.28;;;18.55;;
63112;SDS011;49206;48.020;21.378;2023-02-04T02:40:22;47.70;;;17.98;;
63112;SDS011;49206;48.020;21.378;2023-02-04T02:41:25;35.63;;;18.33;;
63112;SDS011;49206;48.020;21.378;2023-02-04T02:42:28;43.10;;;19.38;;
63112;SDS011;49206;48.020;21.378;2023-02-04T02:43:31;44.90;;;19.65;;
63112;SDS011;49206;48.020;21.378;2023-02-04T02:44:34;41.47;;;19.38;;
63112;SDS011;49206;48.020;21.378;2023-02-04T02:45:37;43.40;;;19.88;;
63112;SDS011;49206;48.020;21.378;2023-02-04T02:46:39;50.55;;;19.85;;
63112;SDS011;49206;48.020;21.378;2023-02-04T02:47:42;42.28;;;18.63;;
63112;SDS011;49206;48.020;21.378;2023-02-04T02:48:45;43.20;;;18.25;;
63112;SDS011;49206;48.020;21.378;2023-02-04T02:49:49;40.78;;;18.15;;
63112;SDS011;49206;48.020;21.378;2023-02-04T02:50:53;40.33;;;18.05;;
63112;SDS011;49206;48.020;21.378;2023-02-04T02:51:56;40.20;;;18.00;;
63112;SDS011;49206;48.020;21.378;2023-02-04T02:53:00;41.50;;;18.90;;
63112;SDS011;49206;48.020;21.378;2023-02-04T02:54:02;41.78;;;18.52;;
63112;SDS011;49206;48.020;21.378;2023-02-04T02:55:10;40.15;;;18.42;;
63112;SDS011;49206;48.020;21.378;2023-02-04T02:56:17;45.72;;;19.88;;
63112;SDS011;49206;48.020;21.378;2023-02-04T02:57:21;44.60;;;19.95;;
63112;SDS011;49206;48.020;21.378;2023-02-04T02:58:28;43.03;;;20.95;;
63112;SDS011;49206;48.020;21.378;2023-02-04T02:59:37;38.13;;;18.73;;
63112;SDS011;49206;48.020;21.378;2023-02-04T03:00:40;37.60;;;17.65;;
63112;SDS011;49206;48.020;21.378;2023-02-04T03:01:43;39.67;;;19.08;;
63112;SDS011;49206;48.020;21.378;2023-02-04T03:02:54;36.08;;;18.85;;
63112;SDS011;49206;48.020;21.378;2023-02-04T03:03:57;35.25;;;16.63;;
63112;SDS011;49206;48.020;21.378;2023-02-04T03:05:00;36.28;;;16.77;;
63112;SDS011;49206;48.020;21.378;2023-02-04T03:06:07;32.60;;;17.00;;
63112;SDS011;49206;48.020;21.378;2023-02-04T03:07:16;38.72;;;17.83;;
63112;SDS011;49206;48.020;21.378;2023-02-04T03:08:20;42.80;;;19.40;;
63112;SDS011;49206;48.020;21.378;2023-02-04T03:09:23;37.13;;;17.95;;
63112;SDS011;49206;48.020;21.378;2023-02-04T03:10:28;41.33;;;18.77;;
63112;SDS011;49206;48.020;21.378;2023-02-04T03:11:31;40.38;;;18.30;;
63112;SDS011;49206;48.020;21.378;2023-02-04T03:12:34;37.35;;;19.25;;
63112;SDS011;49206;48.020;21.378;2023-02-04T03:13:37;44.00;;;20.10;;
63112;SDS011;49206;48.020;21.378;2023-02-04T03:14:40;42.10;;;19.90;;
63112;SDS011;49206;48.020;21.378;2023-02-04T03:15:43;43.28;;;18.35;;
63112;SDS011;49206;48.020;21.378;2023-02-04T03:16:47;37.60;;;18.77;;
63112;SDS011;49206;48.020;21.378;2023-02-04T03:17:50;40.25;;;18.98;;
63112;SDS011;49206;48.020;21.378;2023-02-04T03:19:01;42.85;;;19.20;;
63112;SDS011;49206;48.020;21.378;2023-02-04T03:20:05;40.70;;;18.20;;
63112;SDS011;49206;48.020;21.378;2023-02-04T03:21:09;42.78;;;19.05;;
63112;SDS011;49206;48.020;21.378;2023-02-04T03:22:12;36.70;;;18.45;;
63112;SDS011;49206;48.020;21.378;2023-02-04T03:23:15;39.05;;;18.92;;
63112;SDS011;49206;48.020;21.378;2023-02-04T03:24:18;42.58;;;19.58;;
63112;SDS011;49206;48.020;21.378;2023-02-04T03:25:22;41.20;;;18.45;;
63112;SDS011;49206;48.020;21.378;2023-02-04T03:26:28;38.88;;;18.83;;
63112;SDS011;49206;48.020;21.378;2023-02-04T03:27:31;33.65;;;18.13;;
63112;SDS011;49206;48.020;21.378;2023-02-04T03:28:38;42.55;;;20.52;;
63112;SDS011;49206;48.020;21.378;2023-02-04T03:29:44;36.90;;;19.27;;
63112;SDS011;49206;48.020;21.378;2023-02-04T03:30:47;37.70;;;18.75;;
63112;SDS011;49206;48.020;21.378;2023-02-04T03:31:55;37.00;;;20.05;;
63112;SDS011;49206;48.020;21.378;2023-02-04T03:33:01;39.75;;;19.08;;
63112;SDS011;49206;48.020;21.378;2023-02-04T03:34:04;40.03;;;21.10;;
63112;SDS011;49206;48.020;21.378;2023-02-04T03:35:07;43.85;;;21.33;;
63112;SDS011;49206;48.020;21.378;2023-02-04T03:36:10;39.85;;;19.95;;
63112;SDS011;49206;48.020;21.378;2023-02-04T03:37:12;39.70;;;20.13;;
63112;SDS011;49206;48.020;21.378;2023-02-04T03:38:15;37.67;;;18.73;;
63112;SDS011;49206;48.020;21.378;2023-02-04T03:39:20;34.17;;;17.30;;
63112;SDS011;49206;48.020;21.378;2023-02-04T03:40:23;37.05;;;17.38;;
63112;SDS011;49206;48.020;21.378;2023-02-04T03:41:26;36.15;;;17.88;;
63112;SDS011;49206;48.020;21.378;2023-02-04T03:42:28;39.88;;;19.08;;
63112;SDS011;49206;48.020;21.378;2023-02-04T03:43:31;38.40;;;18.73;;
63112;SDS011;49206;48.020;21.378;2023-02-04T03:44:34;31.88;;;17.27;;
63112;SDS011;49206;48.020;21.378;2023-02-04T03:45:37;34.80;;;17.38;;
63112;SDS011;49206;48.020;21.378;2023-02-04T03:46:46;40.50;;;19.25;;
63112;SDS011;49206;48.020;21.378;2023-02-04T03:47:49;36.15;;;18.35;;
63112;SDS011;49206;48.020;21.378;2023-02-04T03:48:52;37.20;;;18.27;;
63112;SDS011;49206;48.020;21.378;2023-02-04T03:49:56;43.17;;;20.88;;
63112;SDS011;49206;48.020;21.378;2023-02-04T03:50:59;43.60;;;21.15;;
63112;SDS011;49206;48.020;21.378;2023-02-04T03:52:02;41.55;;;20.58;;
63112;SDS011;49206;48.020;21.378;2023-02-04T03:53:05;43.00;;;19.88;;
63112;SDS011;49206;48.020;21.378;2023-02-04T03:54:08;39.67;;;19.98;;
63112;SDS011;49206;48.020;21.378;2023-02-04T03:55:11;34.75;;;18.88;;
63112;SDS011;49206;48.020;21.378;2023-02-04T03:56:13;35.85;;;19.10;;
63112;SDS011;49206;48.020;21.378;2023-02-04T03:57:16;38.65;;;19.15;;
63112;SDS011;49206;48.020;21.378;2023-02-04T03:58:19;36.50;;;18.38;;
63112;SDS011;49206;48.020;21.378;2023-02-04T03:59:22;38.78;;;19.33;;
63112;SDS011;49206;48.020;21.378;2023-02-04T04:00:25;38.80;;;19.65;;
63112;SDS011;49206;48.020;21.378;2023-02-04T04:01:28;37.45;;;19.13;;
63112;SDS011;49206;48.020;21.378;2023-02-04T04:02:30;43.08;;;19.73;;
63112;SDS011;49206;48.020;21.378;2023-02-04T04:03:33;42.33;;;19.40;;
63112;SDS011;49206;48.020;21.378;2023-02-04T04:04:36;36.72;;;18.33;;
63112;SDS011;49206;48.020;21.378;2023-02-04T04:05:39;36.00;;;18.10;;
63112;SDS011;49206;48.020;21.378;2023-02-04T04:06:41;37.22;;;18.20;;
63112;SDS011;49206;48.020;21.378;2023-02-04T04:07:44;39.20;;;19.17;;
63112;SDS011;49206;48.020;21.378;2023-02-04T04:08:47;36.20;;;18.52;;
63112;SDS011;49206;48.020;21.378;2023-02-04T04:09:50;43.60;;;19.77;;
63112;SDS011;49206;48.020;21.378;2023-02-04T04:10:53;38.03;;;19.25;;
63112;SDS011;49206;48.020;21.378;2023-02-04T04:11:55;35.95;;;19.10;;
63112;SDS011;49206;48.020;21.378;2023-02-04T04:12:58;37.22;;;18.77;;
63112;SDS011;49206;48.020;21.378;2023-02-04T04:14:01;40.35;;;18.83;;
63112;SDS011;49206;48.020;21.378;2023-02-04T04:15:04;42.17;;;20.55;;
63112;SDS011;49206;48.020;21.378;2023-02-04T04:16:08;41.03;;;19.45;;
63112;SDS011;49206;48.020;21.378;2023-02-04T04:17:10;40.38;;;19.70;;
63112;SDS011;49206;48.020;21.378;2023-02-04T04:18:13;42.25;;;20.30;;
63112;SDS011;49206;48.020;21.378;2023-02-04T04:19:16;41.63;;;20.48;;
63112;SDS011;49206;48.020;21.378;2023-02-04T04:20:19;39.13;;;19.92;;
63112;SDS011;49206;48.020;21.378;2023-02-04T04:21:22;42.80;;;20.85;;
63112;SDS011;49206;48.020;21.378;2023-02-04T04:22:24;37.83;;;19.08;;
63112;SDS011;49206;48.020;21.378;2023-02-04T04:23:28;40.28;;;20.42;;
63112;SDS011;49206;48.020;21.378;2023-02-04T04:24:30;40.28;;;20.13;;
63112;SDS011;49206;48.020;21.378;2023-02-04T04:25:33;36.95;;;19.77;;
63112;SDS011;49206;48.020;21.378;2023-02-04T04:26:36;39.25;;;19.35;;
63112;SDS011;49206;48.020;21.378;2023-02-04T04:27:39;37.30;;;18.00;;
63112;SDS011;49206;48.020;21.378;2023-02-04T04:28:42;36.47;;;18.15;;
63112;SDS011;49206;48.020;21.378;2023-02-04T04:29:44;37.47;;;19.15;;
63112;SDS011;49206;48.020;21.378;2023-02-04T04:30:47;40.80;;;20.35;;
63112;SDS011;49206;48.020;21.378;2023-02-04T04:31:50;41.33;;;19.63;;
63112;SDS011;49206;48.020;21.378;2023-02-04T04:32:52;38.60;;;19.33;;
63112;SDS011;49206;48.020;21.378;2023-02-04T04:44:53;35.55;;;19.05;;
63112;SDS011;49206;48.020;21.378;2023-02-04T04:45:55;36.42;;;17.67;;
63112;SDS011;49206;48.020;21.378;2023-02-04T04:46:58;35.63;;;18.60;;
63112;SDS011;49206;48.020;21.378;2023-02-04T04:48:01;40.95;;;19.60;;
63112;SDS011;49206;48.020;21.378;2023-02-04T04:49:04;41.40;;;20.42;;
63112;SDS011;49206;48.020;21.378;2023-02-04T04:50:07;37.53;;;20.08;;
63112;SDS011;49206;48.020;21.378;2023-02-04T04:51:10;47.17;;;21.48;;
63112;SDS011;49206;48.020;21.378;2023-02-04T04:52:12;40.40;;;19.65;;
63112;SDS011;49206;48.020;21.378;2023-02-04T04:53:15;37.95;;;20.17;;
63112;SDS011;49206;48.020;21.378;2023-02-04T04:54:17;40.63;;;21.33;;
63112;SDS011;49206;48.020;21.378;2023-02-04T04:55:20;37.17;;;19.63;;
63112;SDS011;49206;48.020;21.378;2023-02-04T04:56:23;41.42;;;21.15;;
63112;SDS011;49206;48.020;21.378;2023-02-04T04:57:26;41.33;;;21.50;;
63112;SDS011;49206;48.020;21.378;2023-02-04T04:58:29;52.85;;;25.67;;
63112;SDS011;49206;48.020;21.378;2023-02-04T04:59:32;43.00;;;23.85;;
63112;SDS011;49206;48.020;21.378;2023-02-04T05:00:35;44.72;;;24.20;;
63112;SDS011;49206;48.020;21.378;2023-02-04T05:01:38;41.95;;;23.15;;
63112;SDS011;49206;48.020;21.378;2023-02-04T05:02:40;46.45;;;22.55;;
63112;SDS011;49206;48.020;21.378;2023-02-04T05:03:43;45.40;;;22.92;;
63112;SDS011;49206;48.020;21.378;2023-02-04T05:04:46;46.38;;;22.75;;
63112;SDS011;49206;48.020;21.378;2023-02-04T05:05:49;49.92;;;24.17;;
63112;SDS011;49206;48.020;21.378;2023-02-04T05:06:51;46.08;;;24.90;;
63112;SDS011;49206;48.020;21.378;2023-02-04T05:07:54;48.80;;;23.52;;
63112;SDS011;49206;48.020;21.378;2023-02-04T05:08:58;46.03;;;24.45;;
63112;SDS011;49206;48.020;21.378;2023-02-04T05:10:01;51.20;;;25.58;;
63112;SDS011;49206;48.020;21.378;2023-02-04T05:11:05;39.85;;;21.35;;
63112;SDS011;49206;48.020;21.378;2023-02-04T05:12:08;44.20;;;21.05;;
63112;SDS011;49206;48.020;21.378;2023-02-04T05:13:10;45.90;;;22.00;;
63112;SDS011;49206;48.020;21.378;2023-02-04T05:14:13;41.30;;;21.05;;
63112;SDS011;49206;48.020;21.378;2023-02-04T05:15:15;48.25;;;24.02;;
63112;SDS011;49206;48.020;21.378;2023-02-04T05:16:18;41.88;;;20.80;;
63112;SDS011;49206;48.020;21.378;2023-02-04T05:17:21;44.35;;;22.92;;
63112;SDS011;49206;48.020;21.378;2023-02-04T05:18:23;42.47;;;20.38;;
63112;SDS011;49206;48.020;21.378;2023-02-04T05:19:26;42.38;;;21.55;;
63112;SDS011;49206;48.020;21.378;2023-02-04T05:20:28;45.85;;;21.98;;
63112;SDS011;49206;48.020;21.378;2023-02-04T05:21:32;43.42;;;20.95;;
63112;SDS011;49206;48.020;21.378;2023-02-04T05:22:34;46.67;;;22.52;;
63112;SDS011;49206;48.020;21.378;2023-02-04T05:23:37;46.38;;;22.50;;
63112;SDS011;49206;48.020;21.378;2023-02-04T05:24:40;44.63;;;23.00;;
63112;SDS011;49206;48.020;21.378;2023-02-04T05:25:42;45.08;;;22.65;;
63112;SDS011;49206;48.020;21.378;2023-02-04T05:26:45;46.85;;;23.25;;
63112;SDS011;49206;48.020;21.378;2023-02-04T05:27:48;43.75;;;21.33;;
63112;SDS011;49206;48.020;21.378;2023-02-04T05:28:51;43.40;;;20.60;;
63112;SDS011;49206;48.020;21.378;2023-02-04T05:29:53;47.08;;;21.42;;
63112;SDS011;49206;48.020;21.378;2023-02-04T05:30:56;43.10;;;20.80;;
63112;SDS011;49206;48.020;21.378;2023-02-04T05:31:59;45.15;;;21.55;;
63112;SDS011;49206;48.020;21.378;2023-02-04T05:33:02;47.20;;;23.77;;
63112;SDS011;49206;48.020;21.378;2023-02-04T05:34:04;42.47;;;24.20;;
63112;SDS011;49206;48.020;21.378;2023-02-04T05:35:07;45.92;;;22.15;;
63112;SDS011;49206;48.020;21.378;2023-02-04T05:36:10;47.90;;;23.70;;
63112;SDS011;49206;48.020;21.378;2023-02-04T05:37:13;43.88;;;21.63;;
63112;SDS011;49206;48.020;21.378;2023-02-04T05:38:16;49.28;;;23.17;;
63112;SDS011;49206;48.020;21.378;2023-02-04T05:39:19;50.65;;;22.50;;
63112;SDS011;49206;48.020;21.378;2023-02-04T05:40:22;47.05;;;24.05;;
63112;SDS011;49206;48.020;21.378;2023-02-04T05:41:24;50.30;;;25.25;;
63112;SDS011;49206;48.020;21.378;2023-02-04T05:42:27;49.22;;;24.52;;
63112;SDS011;49206;48.020;21.378;2023-02-04T05:43:29;51.47;;;27.38;;
63112;SDS011;49206;48.020;21.378;2023-02-04T05:44:32;48.70;;;24.45;;
63112;SDS011;49206;48.020;21.378;2023-02-04T05:45:35;44.58;;;24.13;;
63112;SDS011;49206;48.020;21.378;2023-02-04T05:46:37;54.45;;;25.63;;
63112;SDS011;49206;48.020;21.378;2023-02-04T05:47:40;50.95;;;24.48;;
63112;SDS011;49206;48.020;21.378;2023-02-04T05:48:43;54.17;;;27.40;;
63112;SDS011;49206;48.020;21.378;2023-02-04T05:49:46;58.97;;;29.38;;
63112;SDS011;49206;48.020;21.378;2023-02-04T05:50:49;59.25;;;29.70;;
63112;SDS011;49206;48.020;21.378;2023-02-04T05:51:52;56.83;;;29.95;;
63112;SDS011;49206;48.020;21.378;2023-02-04T05:52:54;55.30;;;26.40;;
63112;SDS011;49206;48.020;21.378;2023-02-04T05:53:57;54.92;;;28.33;;
63112;SDS011;49206;48.020;21.378;2023-02-04T05:55:00;84.10;;;38.13;;
63112;SDS011;49206;48.020;21.378;2023-02-04T05:56:03;66.85;;;32.67;;
63112;SDS011;49206;48.020;21.378;2023-02-04T05:57:06;59.80;;;31.08;;
63112;SDS011;49206;48.020;21.378;2023-02-04T05:58:08;61.90;;;29.02;;
63112;SDS011;49206;48.020;21.378;2023-02-04T05:59:11;52.95;;;28.63;;
63112;SDS011;49206;48.020;21.378;2023-02-04T06:00:14;52.80;;;28.38;;
63112;SDS011;49206;48.020;21.378;2023-02-04T06:01:16;69.43;;;35.08;;
63112;SDS011;49206;48.020;21.378;2023-02-04T06:02:19;79.25;;;40.63;;
63112;SDS011;49206;48.020;21.378;2023-02-04T06:03:22;75.45;;;39.97;;
63112;SDS011;49206;48.020;21.378;2023-02-04T06:04:25;64.57;;;34.15;;
63112;SDS011;49206;48.020;21.378;2023-02-04T06:05:28;64.82;;;35.60;;
63112;SDS011;49206;48.020;21.378;2023-02-04T06:06:30;66.20;;;36.08;;
63112;SDS011;49206;48.020;21.378;2023-02-04T06:07:33;65.18;;;35.97;;
63112;SDS011;49206;48.020;21.378;2023-02-04T06:08:35;74.85;;;36.40;;
63112;SDS011;49206;48.020;21.378;2023-02-04T06:09:38;66.72;;;34.00;;
63112;SDS011;49206;48.020;21.378;2023-02-04T06:10:40;69.88;;;34.67;;
63112;SDS011;49206;48.020;21.378;2023-02-04T06:11:43;65.50;;;33.63;;
63112;SDS011;49206;48.020;21.378;2023-02-04T06:12:45;64.70;;;34.40;;
63112;SDS011;49206;48.020;21.378;2023-02-04T06:13:49;61.05;;;29.08;;
63112;SDS011;49206;48.020;21.378;2023-02-04T06:14:51;61.88;;;28.10;;
63112;SDS011;49206;48.020;21.378;2023-02-04T06:15:54;57.15;;;28.63;;
63112;SDS011;49206;48.020;21.378;2023-02-04T06:16:56;59.55;;;27.88;;
63112;SDS011;49206;48.020;21.378;2023-02-04T06:18:00;52.63;;;27.15;;
63112;SDS011;49206;48.020;21.378;2023-02-04T06:19:03;57.70;;;26.73;;